sensor_id;sensor_type;location;lat;lon;timestamp;pressure;altitude;pressure_sealevel;temperature;humidity
61697;BME280;47610;52.252;20.922;2023-01-27T00:02:52;100631.23;;;0.58;100.00
61697;BME280;47610;52.252;20.922;2023-01-27T00:07:57;100623.84;;;0.59;100.00
61697;BME280;47610;52.252;20.922;2023-01-27T00:13:00;100618.72;;;0.58;100.00
61697;BME280;47610;52.252;20.922;2023-01-27T00:18:05;100624.89;;;0.63;100.00
61697;BME280;47610;52.252;20.922;2023-01-27T00:23:15;100631.20;;;0.67;100.00
61697;BME280;47610;52.252;20.922;2023-01-27T00:28:19;100624.73;;;0.62;100.00
61697;BME280;47610;52.252;20.922;2023-01-27T00:33:23;100630.03;;;0.64;100.00
61697;BME280;47610;52.252;20.922;2023-01-27T00:38:27;100637.41;;;0.62;100.00
61697;BME280;47610;52.252;20.922;2023-01-27T00:43:29;100634.64;;;0.58;100.00
61697;BME280;47610;52.252;20.922;2023-01-27T00:48:36;100633.92;;;0.54;100.00
61697;BME280;47610;52.252;20.922;2023-01-27T00:53:40;100641.53;;;0.50;100.00
61697;BME280;47610;52.252;20.922;2023-01-27T00:58:43;100642.95;;;0.49;100.00
61697;BME280;47610;52.252;20.922;2023-01-27T01:03:49;100643.55;;;0.48;100.00
61697;BME280;47610;52.252;20.922;2023-01-27T01:17:20;100640.76;;;0.57;100.00
61697;BME280;47610;52.252;20.922;2023-01-27T01:22:24;100636.38;;;0.55;100.00
61697;BME280;47610;52.252;20.922;2023-01-27T01:27:28;100647.61;;;0.61;100.00
61697;BME280;47610;52.252;20.922;2023-01-27T01:32:31;100640.98;;;0.63;100.00
61697;BME280;47610;52.252;20.922;2023-01-27T01:37:35;100640.45;;;0.65;100.00
61697;BME280;47610;52.252;20.922;2023-01-27T01:42:56;100638.91;;;0.67;100.00
61697;BME280;47610;52.252;20.922;2023-01-27T01:48:01;100638.33;;;0.69;100.00
61697;BME280;47610;52.252;20.922;2023-01-27T01:53:07;100644.00;;;0.70;100.00
61697;BME280;47610;52.252;20.922;2023-01-27T01:58:13;100643.16;;;0.68;100.00
61697;BME280;47610;52.252;20.922;2023-01-27T02:03:18;100643.55;;;0.68;100.00
61697;BME280;47610;52.252;20.922;2023-01-27T02:08:25;100639.30;;;0.67;100.00
61697;BME280;47610;52.252;20.922;2023-01-27T02:13:31;100637.64;;;0.61;100.00
61697;BME280;47610;52.252;20.922;2023-01-27T02:18:35;100641.00;;;0.55;100.00
61697;BME280;47610;52.252;20.922;2023-01-27T02:23:43;100641.23;;;0.49;100.00
61697;BME280;47610;52.252;20.922;2023-01-27T02:28:55;100639.89;;;0.47;100.00
61697;BME280;47610;52.252;20.922;2023-01-27T02:34:01;100638.71;;;0.42;100.00
61697;BME280;47610;52.252;20.922;2023-01-27T02:39:08;100645.77;;;0.38;100.00
61697;BME280;47610;52.252;20.922;2023-01-27T02:44:14;100645.14;;;0.35;100.00
61697;BME280;47610;52.252;20.922;2023-01-27T02:49:19;100637.54;;;0.31;100.00
61697;BME280;47610;52.252;20.922;2023-01-27T02:54:22;100642.17;;;0.31;100.00
61697;BME280;47610;52.252;20.922;2023-01-27T02:59:26;100640.27;;;0.35;100.00
61697;BME280;47610;52.252;20.922;2023-01-27T03:04:31;100643.45;;;0.39;100.00
61697;BME280;47610;52.252;20.922;2023-01-27T03:09:34;100643.30;;;0.45;100.00
61697;BME280;47610;52.252;20.922;2023-01-27T03:14:39;100649.70;;;0.50;100.00
61697;BME280;47610;52.252;20.922;2023-01-27T03:19:41;100644.11;;;0.52;100.00
61697;BME280;47610;52.252;20.922;2023-01-27T03:24:42;100644.64;;;0.55;100.00
61697;BME280;47610;52.252;20.922;2023-01-27T03:36:26;100653.73;;;0.61;100.00
61697;BME280;47610;52.252;20.922;2023-01-27T03:41:30;100652.97;;;0.56;100.00
61697;BME280;47610;52.252;20.922;2023-01-27T03:46:33;100649.50;;;0.54;100.00
61697;BME280;47610;52.252;20.922;2023-01-27T03:51:40;100654.80;;;0.57;100.00
61697;BME280;47610;52.252;20.922;2023-01-27T03:56:45;100653.52;;;0.57;100.00
61697;BME280;47610;52.252;20.922;2023-01-27T04:01:49;100653.67;;;0.58;100.00
61697;BME280;47610;52.252;20.922;2023-01-27T04:06:52;100662.06;;;0.58;100.00
61697;BME280;47610;52.252;20.922;2023-01-27T04:11:58;100668.56;;;0.58;100.00
61697;BME280;47610;52.252;20.922;2023-01-27T04:17:08;100667.40;;;0.59;100.00
61697;BME280;47610;52.252;20.922;2023-01-27T04:22:14;100672.04;;;0.61;100.00
61697;BME280;47610;52.252;20.922;2023-01-27T04:27:18;100673.36;;;0.60;100.00
61697;BME280;47610;52.252;20.922;2023-01-27T04:32:21;100668.36;;;0.58;100.00
61697;BME280;47610;52.252;20.922;2023-01-27T04:37:25;100666.73;;;0.61;100.00
61697;BME280;47610;52.252;20.922;2023-01-27T04:42:31;100669.61;;;0.60;100.00
61697;BME280;47610;52.252;20.922;2023-01-27T04:47:35;100667.77;;;0.59;100.00
61697;BME280;47610;52.252;20.922;2023-01-27T04:52:40;100670.70;;;0.60;100.00
61697;BME280;47610;52.252;20.922;2023-01-27T04:57:45;100676.58;;;0.59;100.00
61697;BME280;47610;52.252;20.922;2023-01-27T05:02:50;100682.58;;;0.59;100.00
61697;BME280;47610;52.252;20.922;2023-01-27T05:07:55;100688.02;;;0.59;100.00
61697;BME280;47610;52.252;20.922;2023-01-27T05:12:58;100683.64;;;0.58;100.00
61697;BME280;47610;52.252;20.922;2023-01-27T05:18:02;100691.82;;;0.56;100.00
61697;BME280;47610;52.252;20.922;2023-01-27T05:23:05;100693.27;;;0.56;100.00
61697;BME280;47610;52.252;20.922;2023-01-27T05:28:10;100699.73;;;0.58;100.00
61697;BME280;47610;52.252;20.922;2023-01-27T05:33:15;100704.11;;;0.57;100.00
61697;BME280;47610;52.252;20.922;2023-01-27T05:38:18;100705.66;;;0.55;100.00
61697;BME280;47610;52.252;20.922;2023-01-27T05:43:22;100709.62;;;0.51;100.00
61697;BME280;47610;52.252;20.922;2023-01-27T05:57:01;100714.48;;;0.53;100.00
61697;BME280;47610;52.252;20.922;2023-01-27T06:02:05;100719.57;;;0.47;100.00
61697;BME280;47610;52.252;20.922;2023-01-27T06:07:10;100720.45;;;0.41;100.00
61697;BME280;47610;52.252;20.922;2023-01-27T06:12:15;100727.67;;;0.37;100.00
61697;BME280;47610;52.252;20.922;2023-01-27T06:17:19;100737.17;;;0.35;100.00
61697;BME280;47610;52.252;20.922;2023-01-27T06:22:22;100747.25;;;0.34;100.00
61697;BME280;47610;52.252;20.922;2023-01-27T06:27:28;100749.23;;;0.33;100.00
61697;BME280;47610;52.252;20.922;2023-01-27T06:32:31;100759.70;;;0.33;100.00
61697;BME280;47610;52.252;20.922;2023-01-27T06:37:37;100761.62;;;0.33;100.00
61697;BME280;47610;52.252;20.922;2023-01-27T06:42:42;100763.95;;;0.34;100.00
61697;BME280;47610;52.252;20.922;2023-01-27T06:47:52;100768.09;;;0.36;100.00
61697;BME280;47610;52.252;20.922;2023-01-27T06:53:00;100767.52;;;0.39;100.00
61697;BME280;47610;52.252;20.922;2023-01-27T06:58:04;100767.70;;;0.46;100.00
61697;BME280;47610;52.252;20.922;2023-01-27T07:03:09;100774.36;;;0.54;100.00
61697;BME280;47610;52.252;20.922;2023-01-27T07:08:15;100771.46;;;0.63;100.00
61697;BME280;47610;52.252;20.922;2023-01-27T07:13:19;100770.70;;;0.70;100.00
61697;BME280;47610;52.252;20.922;2023-01-27T07:18:23;100769.11;;;0.80;100.00
61697;BME280;47610;52.252;20.922;2023-01-27T07:23:29;100774.45;;;0.92;100.00
61697;BME280;47610;52.252;20.922;2023-01-27T07:28:32;100780.84;;;1.07;100.00
61697;BME280;47610;52.252;20.922;2023-01-27T07:33:36;100779.69;;;1.23;100.00
61697;BME280;47610;52.252;20.922;2023-01-27T07:38:40;100780.02;;;1.34;100.00
61697;BME280;47610;52.252;20.922;2023-01-27T07:43:44;100781.52;;;1.37;100.00
61697;BME280;47610;52.252;20.922;2023-01-27T07:48:47;100784.84;;;1.35;100.00
61697;BME280;47610;52.252;20.922;2023-01-27T07:53:51;100783.40;;;1.37;100.00
61697;BME280;47610;52.252;20.922;2023-01-27T07:58:55;100785.02;;;1.42;100.00
61697;BME280;47610;52.252;20.922;2023-01-27T08:03:58;100790.23;;;1.60;100.00
61697;BME280;47610;52.252;20.922;2023-01-27T08:17:20;100792.60;;;2.10;100.00
61697;BME280;47610;52.252;20.922;2023-01-27T08:22:24;100792.52;;;2.20;100.00
61697;BME280;47610;52.252;20.922;2023-01-27T08:27:28;100798.17;;;2.36;100.00
61697;BME280;47610;52.252;20.922;2023-01-27T08:32:32;100802.34;;;2.44;100.00
61697;BME280;47610;52.252;20.922;2023-01-27T08:37:37;100803.02;;;2.43;100.00
61697;BME280;47610;52.252;20.922;2023-01-27T08:42:41;100804.98;;;2.55;100.00
61697;BME280;47610;52.252;20.922;2023-01-27T08:47:46;100805.96;;;2.65;100.00
61697;BME280;47610;52.252;20.922;2023-01-27T08:52:48;100810.46;;;2.74;100.00
61697;BME280;47610;52.252;20.922;2023-01-27T08:57:52;100808.96;;;2.85;100.00
61697;BME280;47610;52.252;20.922;2023-01-27T09:02:55;100817.86;;;2.90;100.00
61697;BME280;47610;52.252;20.922;2023-01-27T09:08:00;100822.25;;;2.91;100.00
61697;BME280;47610;52.252;20.922;2023-01-27T09:13:04;100824.63;;;2.91;100.00
61697;BME280;47610;52.252;20.922;2023-01-27T09:18:09;100818.80;;;3.05;100.00
61697;BME280;47610;52.252;20.922;2023-01-27T09:23:13;100818.79;;;3.43;100.00
61697;BME280;47610;52.252;20.922;2023-01-27T09:28:19;100813.77;;;3.94;100.00
61697;BME280;47610;52.252;20.922;2023-01-27T09:33:22;100817.71;;;4.85;100.00
61697;BME280;47610;52.252;20.922;2023-01-27T09:38:28;100812.92;;;6.09;100.00
61697;BME280;47610;52.252;20.922;2023-01-27T09:43:51;100812.00;;;6.62;100.00
61697;BME280;47610;52.252;20.922;2023-01-27T09:49:13;100821.50;;;6.71;100.00
61697;BME280;47610;52.252;20.922;2023-01-27T09:54:35;100816.58;;;6.45;100.00
61697;BME280;47610;52.252;20.922;2023-01-27T09:59:55;100818.06;;;6.30;100.00
61697;BME280;47610;52.252;20.922;2023-01-27T10:05:18;100820.37;;;6.08;100.00
61697;BME280;47610;52.252;20.922;2023-01-27T10:10:34;100815.64;;;5.71;100.00
61697;BME280;47610;52.252;20.922;2023-01-27T10:15:52;100816.77;;;5.41;100.00
61697;BME280;47610;52.252;20.922;2023-01-27T10:21:02;100819.83;;;5.16;100.00
61697;BME280;47610;52.252;20.922;2023-01-27T10:26:19;100825.23;;;4.83;100.00
61697;BME280;47610;52.252;20.922;2023-01-27T10:36:48;100836.64;;;4.22;100.00
61697;BME280;47610;52.252;20.922;2023-01-27T10:42:02;100841.52;;;3.91;100.00
61697;BME280;47610;52.252;20.922;2023-01-27T10:47:14;100843.91;;;3.60;100.00
61697;BME280;47610;52.252;20.922;2023-01-27T10:52:24;100844.62;;;3.37;100.00
61697;BME280;47610;52.252;20.922;2023-01-27T10:57:32;100843.28;;;3.16;100.00
61697;BME280;47610;52.252;20.922;2023-01-27T11:02:41;100851.30;;;2.98;100.00
61697;BME280;47610;52.252;20.922;2023-01-27T11:07:53;100852.10;;;2.79;100.00
61697;BME280;47610;52.252;20.922;2023-01-27T11:13:02;100845.91;;;2.64;100.00
61697;BME280;47610;52.252;20.922;2023-01-27T11:18:14;100836.09;;;2.57;100.00
61697;BME280;47610;52.252;20.922;2023-01-27T11:23:27;100830.90;;;2.57;100.00
61697;BME280;47610;52.252;20.922;2023-01-27T11:28:38;100824.84;;;2.60;100.00
61697;BME280;47610;52.252;20.922;2023-01-27T11:33:51;100821.53;;;2.61;100.00
61697;BME280;47610;52.252;20.922;2023-01-27T11:38:58;100821.69;;;2.68;100.00
61697;BME280;47610;52.252;20.922;2023-01-27T11:44:06;100820.68;;;2.71;100.00
61697;BME280;47610;52.252;20.922;2023-01-27T11:49:19;100814.56;;;2.73;100.00
61697;BME280;47610;52.252;20.922;2023-01-27T11:54:29;100815.34;;;2.79;100.00
61697;BME280;47610;52.252;20.922;2023-01-27T11:59:41;100818.34;;;2.84;100.00
61697;BME280;47610;52.252;20.922;2023-01-27T12:04:54;100811.18;;;2.86;100.00
61697;BME280;47610;52.252;20.922;2023-01-27T12:10:00;100813.34;;;2.91;100.00
61697;BME280;47610;52.252;20.922;2023-01-27T12:15:13;100812.84;;;2.90;100.00
61697;BME280;47610;52.252;20.922;2023-01-27T12:20:34;100817.13;;;2.85;100.00
61697;BME280;47610;52.252;20.922;2023-01-27T12:25:45;100810.98;;;2.85;100.00
61697;BME280;47610;52.252;20.922;2023-01-27T12:30:50;100811.00;;;2.90;100.00
61697;BME280;47610;52.252;20.922;2023-01-27T12:35:57;100813.06;;;2.95;100.00
61697;BME280;47610;52.252;20.922;2023-01-27T12:41:03;100811.17;;;2.90;100.00
61697;BME280;47610;52.252;20.922;2023-01-27T12:46:18;100812.84;;;2.88;100.00
61697;BME280;47610;52.252;20.922;2023-01-27T12:57:02;100820.95;;;2.91;100.00
61697;BME280;47610;52.252;20.922;2023-01-27T13:02:16;100820.65;;;2.80;100.00
61697;BME280;47610;52.252;20.922;2023-01-27T13:07:22;100826.37;;;2.70;100.00
61697;BME280;47610;52.252;20.922;2023-01-27T13:12:27;100825.39;;;2.58;100.00
61697;BME280;47610;52.252;20.922;2023-01-27T13:17:36;100821.94;;;2.53;100.00
61697;BME280;47610;52.252;20.922;2023-01-27T13:22:42;100821.09;;;2.50;100.00
61697;BME280;47610;52.252;20.922;2023-01-27T13:27:47;100823.12;;;2.39;100.00
61697;BME280;47610;52.252;20.922;2023-01-27T13:32:52;100825.05;;;2.31;100.00
61697;BME280;47610;52.252;20.922;2023-01-27T13:38:01;100828.27;;;2.30;100.00
61697;BME280;47610;52.252;20.922;2023-01-27T13:43:09;100827.10;;;2.28;100.00
61697;BME280;47610;52.252;20.922;2023-01-27T13:48:16;100828.23;;;2.20;100.00
61697;BME280;47610;52.252;20.922;2023-01-27T13:53:20;100829.70;;;2.11;100.00
61697;BME280;47610;52.252;20.922;2023-01-27T13:58:28;100832.23;;;2.04;100.00
61697;BME280;47610;52.252;20.922;2023-01-27T14:03:56;100831.41;;;1.97;100.00
61697;BME280;47610;52.252;20.922;2023-01-27T14:09:13;100836.79;;;1.91;100.00
61697;BME280;47610;52.252;20.922;2023-01-27T14:14:37;100843.77;;;1.89;100.00
61697;BME280;47610;52.252;20.922;2023-01-27T14:19:49;100846.61;;;1.87;100.00
61697;BME280;47610;52.252;20.922;2023-01-27T14:24:59;100850.09;;;1.79;100.00
61697;BME280;47610;52.252;20.922;2023-01-27T14:30:14;100842.56;;;1.70;100.00
61697;BME280;47610;52.252;20.922;2023-01-27T14:35:36;100843.02;;;1.66;100.00
61697;BME280;47610;52.252;20.922;2023-01-27T14:46:09;100846.08;;;1.51;100.00
61697;BME280;47610;52.252;20.922;2023-01-27T14:51:23;100841.25;;;1.42;100.00
61697;BME280;47610;52.252;20.922;2023-01-27T14:56:37;100845.95;;;1.38;100.00
61697;BME280;47610;52.252;20.922;2023-01-27T15:01:51;100844.48;;;1.32;100.00
61697;BME280;47610;52.252;20.922;2023-01-27T15:07:04;100849.58;;;1.26;100.00
61697;BME280;47610;52.252;20.922;2023-01-27T15:17:49;100851.05;;;1.10;100.00
61697;BME280;47610;52.252;20.922;2023-01-27T15:23:07;100853.85;;;1.00;100.00
61697;BME280;47610;52.252;20.922;2023-01-27T15:28:17;100854.30;;;0.90;100.00
61697;BME280;47610;52.252;20.922;2023-01-27T15:33:48;100856.23;;;0.77;100.00
61697;BME280;47610;52.252;20.922;2023-01-27T15:39:20;100852.88;;;0.68;100.00
61697;BME280;47610;52.252;20.922;2023-01-27T15:44:31;100868.25;;;0.72;100.00
61697;BME280;47610;52.252;20.922;2023-01-27T15:49:43;100870.85;;;0.74;100.00
61697;BME280;47610;52.252;20.922;2023-01-27T15:54:49;100872.73;;;0.76;100.00
61697;BME280;47610;52.252;20.922;2023-01-27T16:00:00;100872.94;;;0.76;100.00
61697;BME280;47610;52.252;20.922;2023-01-27T16:05:22;100877.41;;;0.76;100.00
61697;BME280;47610;52.252;20.922;2023-01-27T16:10:31;100877.23;;;0.77;100.00
61697;BME280;47610;52.252;20.922;2023-01-27T16:15:37;100881.69;;;0.74;100.00
61697;BME280;47610;52.252;20.922;2023-01-27T16:20:42;100888.27;;;0.66;100.00
61697;BME280;47610;52.252;20.922;2023-01-27T16:25:53;100890.96;;;0.58;100.00
61697;BME280;47610;52.252;20.922;2023-01-27T16:31:09;100896.28;;;0.56;100.00
61697;BME280;47610;52.252;20.922;2023-01-27T16:36:22;100895.06;;;0.55;100.00
61697;BME280;47610;52.252;20.922;2023-01-27T16:41:29;100901.44;;;0.55;100.00
61697;BME280;47610;52.252;20.922;2023-01-27T16:46:38;100900.44;;;0.55;100.00
61697;BME280;47610;52.252;20.922;2023-01-27T16:51:43;100902.92;;;0.53;100.00
61697;BME280;47610;52.252;20.922;2023-01-27T17:05:52;100905.05;;;0.52;100.00
61697;BME280;47610;52.252;20.922;2023-01-27T17:11:06;100908.95;;;0.54;100.00
61697;BME280;47610;52.252;20.922;2023-01-27T17:16:14;100907.98;;;0.55;100.00
61697;BME280;47610;52.252;20.922;2023-01-27T17:21:32;100907.34;;;0.57;100.00
61697;BME280;47610;52.252;20.922;2023-01-27T17:26:39;100908.57;;;0.54;100.00
61697;BME280;47610;52.252;20.922;2023-01-27T17:31:45;100915.08;;;0.52;100.00
61697;BME280;47610;52.252;20.922;2023-01-27T17:42:06;100913.73;;;0.51;100.00
61697;BME280;47610;52.252;20.922;2023-01-27T17:47:13;100912.77;;;0.53;100.00
61697;BME280;47610;52.252;20.922;2023-01-27T17:52:20;100916.38;;;0.57;100.00
61697;BME280;47610;52.252;20.922;2023-01-27T17:57:27;100917.81;;;0.61;100.00
61697;BME280;47610;52.252;20.922;2023-01-27T18:02:34;100918.27;;;0.66;100.00
61697;BME280;47610;52.252;20.922;2023-01-27T18:07:38;100923.64;;;0.69;100.00
61697;BME280;47610;52.252;20.922;2023-01-27T18:12:49;100924.52;;;0.71;100.00
61697;BME280;47610;52.252;20.922;2023-01-27T18:18:05;100930.95;;;0.69;100.00
61697;BME280;47610;52.252;20.922;2023-01-27T18:23:15;100930.89;;;0.63;100.00
61697;BME280;47610;52.252;20.922;2023-01-27T18:28:21;100929.30;;;0.62;100.00
61697;BME280;47610;52.252;20.922;2023-01-27T18:33:26;100927.14;;;0.63;100.00
61697;BME280;47610;52.252;20.922;2023-01-27T18:38:31;100933.97;;;0.62;100.00
61697;BME280;47610;52.252;20.922;2023-01-27T18:43:36;100943.55;;;0.62;100.00
61697;BME280;47610;52.252;20.922;2023-01-27T18:48:38;100946.84;;;0.61;100.00
61697;BME280;47610;52.252;20.922;2023-01-27T18:53:40;100947.70;;;0.64;100.00
61697;BME280;47610;52.252;20.922;2023-01-27T18:58:43;100953.73;;;0.70;100.00
61697;BME280;47610;52.252;20.922;2023-01-27T19:03:45;100963.85;;;0.73;100.00
61697;BME280;47610;52.252;20.922;2023-01-27T19:08:46;100970.44;;;0.74;100.00
61697;BME280;47610;52.252;20.922;2023-01-27T19:13:48;100973.56;;;0.73;100.00
61697;BME280;47610;52.252;20.922;2023-01-27T19:26:27;100976.95;;;0.80;100.00
61697;BME280;47610;52.252;20.922;2023-01-27T19:31:28;100982.74;;;0.79;100.00
61697;BME280;47610;52.252;20.922;2023-01-27T19:36:32;100988.65;;;0.77;100.00
61697;BME280;47610;52.252;20.922;2023-01-27T19:41:34;100994.35;;;0.76;100.00
61697;BME280;47610;52.252;20.922;2023-01-27T19:46:36;100996.25;;;0.74;100.00
61697;BME280;47610;52.252;20.922;2023-01-27T19:51:38;100997.65;;;0.71;100.00
61697;BME280;47610;52.252;20.922;2023-01-27T19:56:39;101001.52;;;0.71;100.00
61697;BME280;47610;52.252;20.922;2023-01-27T20:01:40;101005.24;;;0.71;100.00
61697;BME280;47610;52.252;20.922;2023-01-27T20:06:41;101003.70;;;0.66;100.00
61697;BME280;47610;52.252;20.922;2023-01-27T20:11:42;101007.40;;;0.62;100.00
61697;BME280;47610;52.252;20.922;2023-01-27T20:16:45;101009.56;;;0.60;100.00
61697;BME280;47610;52.252;20.922;2023-01-27T20:21:46;101019.84;;;0.58;100.00
61697;BME280;47610;52.252;20.922;2023-01-27T20:26:49;101027.69;;;0.55;100.00
61697;BME280;47610;52.252;20.922;2023-01-27T20:31:50;101029.02;;;0.55;100.00
61697;BME280;47610;52.252;20.922;2023-01-27T20:36:51;101030.44;;;0.52;100.00
61697;BME280;47610;52.252;20.922;2023-01-27T20:41:52;101032.96;;;0.49;100.00
61697;BME280;47610;52.252;20.922;2023-01-27T20:46:54;101032.23;;;0.46;100.00
61697;BME280;47610;52.252;20.922;2023-01-27T20:51:55;101033.90;;;0.43;100.00
61697;BME280;47610;52.252;20.922;2023-01-27T20:56:56;101033.20;;;0.38;100.00
61697;BME280;47610;52.252;20.922;2023-01-27T21:01:58;101033.21;;;0.37;100.00
61697;BME280;47610;52.252;20.922;2023-01-27T21:06:59;101035.75;;;0.37;100.00
61697;BME280;47610;52.252;20.922;2023-01-27T21:18:28;101034.08;;;0.39;100.00
61697;BME280;47610;52.252;20.922;2023-01-27T21:23:31;101033.10;;;0.38;100.00
61697;BME280;47610;52.252;20.922;2023-01-27T21:28:34;101028.54;;;0.37;100.00
61697;BME280;47610;52.252;20.922;2023-01-27T21:33:38;101033.16;;;0.36;100.00
61697;BME280;47610;52.252;20.922;2023-01-27T21:38:40;101032.27;;;0.33;100.00
61697;BME280;47610;52.252;20.922;2023-01-27T21:43:42;101031.38;;;0.29;100.00
61697;BME280;47610;52.252;20.922;2023-01-27T21:48:44;101029.64;;;0.27;100.00
61697;BME280;47610;52.252;20.922;2023-01-27T21:53:46;101024.38;;;0.25;100.00
61697;BME280;47610;52.252;20.922;2023-01-27T21:58:48;101023.16;;;0.24;100.00
61697;BME280;47610;52.252;20.922;2023-01-27T22:03:51;101013.64;;;0.22;100.00
61697;BME280;47610;52.252;20.922;2023-01-27T22:08:52;101010.13;;;0.16;100.00
61697;BME280;47610;52.252;20.922;2023-01-27T22:13:54;101010.05;;;0.10;100.00
61697;BME280;47610;52.252;20.922;2023-01-27T22:20:02;101001.82;;;0.06;100.00
61697;BME280;47610;52.252;20.922;2023-01-27T22:25:08;100998.84;;;0.00;100.00
61697;BME280;47610;52.252;20.922;2023-01-27T22:30:14;100998.31;;;-0.02;100.00
61697;BME280;47610;52.252;20.922;2023-01-27T22:35:19;101002.14;;;0.01;100.00
61697;BME280;47610;52.252;20.922;2023-01-27T22:40:21;101003.23;;;0.04;100.00
61697;BME280;47610;52.252;20.922;2023-01-27T22:45:25;101004.32;;;0.04;100.00
61697;BME280;47610;52.252;20.922;2023-01-27T22:50:30;101005.57;;;0.03;100.00
61697;BME280;47610;52.252;20.922;2023-01-27T22:55:34;100997.71;;;0.01;100.00
61697;BME280;47610;52.252;20.922;2023-01-27T23:00:37;100990.55;;;0.01;100.00
61697;BME280;47610;52.252;20.922;2023-01-27T23:05:41;100989.39;;;0.02;100.00
61697;BME280;47610;52.252;20.922;2023-01-27T23:10:44;100990.31;;;0.02;100.00
61697;BME280;47610;52.252;20.922;2023-01-27T23:15:48;100986.77;;;0.02;100.00
61697;BME280;47610;52.252;20.922;2023-01-27T23:20:52;100986.85;;;0.01;100.00
61697;BME280;47610;52.252;20.922;2023-01-27T23:25:56;100985.38;;;-0.04;100.00
61697;BME280;47610;52.252;20.922;2023-01-27T23:31:01;100979.71;;;-0.04;100.00
61697;BME280;47610;52.252;20.922;2023-01-27T23:36:08;100976.48;;;-0.07;100.00
61697;BME280;47610;52.252;20.922;2023-01-27T23:41:13;100981.66;;;-0.08;100.00
61697;BME280;47610;52.252;20.922;2023-01-27T23:46:17;100986.26;;;-0.07;100.00
61697;BME280;47610;52.252;20.922;2023-01-27T23:51:21;100984.71;;;-0.07;100.00
61697;BME280;47610;52.252;20.922;2023-01-27T23:56:25;100986.90;;;-0.04;100.00
